Airfield :
LOGIN :

Register | Disclaimer

   EN    FR    IT 

 










Legend :    VFR   Marginal VFR   IFR   Intensive IFR   Very Intensive IFR
Visi :
Ceiling :
>= 8 km
>= 3000ft
5 to 8 km
1000 to 3000 ft
1500m to 5 km
500 to 1000 ft
800 to 1500m
200 to 500 ft
< 800m
< 200 ft
Symbols :   Thunderstorms  Fog  Heavy snow  Heavy precipitations  Wind > 20 kt
SIGMETs :     Misc.  Thunderstorms  Icing  Turbulence  Mountain Waves  Volcanic Ashes






- Airport Elevation : 2220 ft


LOXZ - Zeltweg AB

CURRENT METAR :
  • 301020Z 29005KT 20KM FEW018SC SCT040SC BKN050SC 02/M01 Q1019 TEMPO -SHSN

EXPIRED METARs :
  • 300950Z 27007KT 20KM FEW017SC SCT035SC BKN050SC 02/M01 Q1019 NOSIG
  • 300920Z 29007KT 15KM 4000W -SHSN FEW005ST SCT015SC BKN030SC 01/M01 Q1019 NOSIG
  • 300850Z 28005KT 10KM 4000W FEW005ST SCT020SC BKN035SC 01/M01 Q1019 NOSIG
  • 300820Z 06006KT 10KM 3000W -SHSN FEW004ST SCT016SC BKN025SC 02/M02 Q1019 TEMPO 3000
  • 300750Z 09007KT 15KM 5000W FEW007ST SCT035SC BKN060SC 02/M01 Q1019 NOSIG

TAF TAF LOXZ
Valid from the 30 at 09:00 until the 30 at 18:00 UTC


300815Z 3009/3018 07006KT 9999 FEW010 SCT030 BKN050
TEMPO 3009/3012 3000 -SN FEW007 BKN025
TEMPO 3010/3017 07010G20KT



MET'MAP, your aeronautical weather chart ! - Copyright ORBIFLY December 2007 - Disclaimer

ORBIFLY MET'MAP TEAM :

Programming & Development : Alexandra Zaïnal
Concept & original design : Baudouin d'Aumeries
Assistance for programming : Marc-Olivier Méhu
Technical & hardware support : Manuel Goepfert

Contact : metmap@orbifly.com




SOURCES & CREDITS :

   NOAA